Time;durP1;ratioP1;P1;durP2;ratioP2;P2;SDS_P1;SDS_P2;PMS_P1;PMS_P2;Temp;Humidity;BMP_temperature;BMP_pressure;BME280_temperature;BME280_humidity;BME280_pressure;Samples;Min_cycle;Max_cycle;Signal;HPM_P1;HPM_P2
2022/05/12 00:01:14;;;;;;;8.53;2.75;;;;;;;5.29;66.63;100232.79;1743003;82;21553;-77
2022/05/12 00:04:19;;;;;;;6.92;2.90;;;;;;;5.28;66.22;100238.72;1742057;82;21204;-77
2022/05/12 00:07:25;;;;;;;6.75;3.08;;;;;;;5.27;66.18;100241.08;1742798;82;21753;-77
2022/05/12 00:10:32;;;;;;;6.33;3.05;;;;;;;5.20;66.16;100248.06;1743068;82;21845;-78
2022/05/12 00:13:37;;;;;;;6.90;3.02;;;;;;;5.16;66.46;100247.98;1741882;82;21221;-77
2022/05/12 00:16:42;;;;;;;5.72;3.17;;;;;;;5.16;66.68;100251.20;1742941;82;21702;-77
2022/05/12 00:19:48;;;;;;;5.30;2.70;;;;;;;5.17;66.94;100251.55;1741727;82;21244;-77
2022/05/12 00:22:54;;;;;;;11.97;3.30;;;;;;;5.18;67.48;100247.87;1742490;82;22082;-78
2022/05/12 00:25:59;;;;;;;5.05;2.75;;;;;;;5.15;68.16;100253.06;1742918;82;21165;-77
2022/05/12 00:29:11;;;;;;;7.00;2.87;;;;;;;5.12;69.03;100250.63;1712281;83;21878;-77
2022/05/12 00:32:16;;;;;;;10.43;3.20;;;;;;;5.09;69.71;100251.78;1713256;83;21939;-77
2022/05/12 00:35:22;;;;;;;7.03;3.67;;;;;;;5.05;70.57;100254.92;1713211;84;21248;-77
2022/05/12 00:38:27;;;;;;;11.73;3.17;;;;;;;5.01;71.21;100255.70;1712445;83;21223;-77
2022/05/12 00:41:32;;;;;;;6.00;3.22;;;;;;;4.96;71.70;100251.20;1713297;84;21168;-77
2022/05/12 00:44:39;;;;;;;7.55;3.22;;;;;;;4.94;72.22;100248.26;1713423;84;21216;-77
2022/05/12 00:47:45;;;;;;;5.90;2.90;;;;;;;4.92;72.60;100254.33;1713126;83;21223;-77
2022/05/12 00:50:50;;;;;;;15.03;2.77;;;;;;;4.91;72.88;100248.56;1713250;84;21280;-77
2022/05/12 00:53:56;;;;;;;6.42;3.02;;;;;;;4.90;72.88;100246.36;1712126;83;21795;-77
2022/05/12 00:57:02;;;;;;;6.97;2.90;;;;;;;4.89;72.98;100251.39;1713480;83;21252;-77
2022/05/12 01:00:08;;;;;;;9.30;2.77;;;;;;;4.90;73.16;100250.42;1712388;84;21180;-77
2022/05/12 01:03:19;;;;;;;7.05;3.10;;;;;;;4.90;73.15;100257.70;1712652;83;21216;-77
2022/05/12 01:06:24;;;;;;;6.58;3.55;;;;;;;4.90;73.36;100252.28;1713534;84;21152;-77
2022/05/12 01:09:30;;;;;;;10.78;3.27;;;;;;;4.87;73.36;100250.19;1712555;84;21188;-77
2022/05/12 01:12:36;;;;;;;8.80;3.20;;;;;;;4.84;73.76;100251.81;1712725;83;21216;-77
2022/05/12 01:15:42;;;;;;;7.47;3.10;;;;;;;4.82;74.23;100253.83;1690833;83;21289;-77
2022/05/12 01:18:48;;;;;;;9.48;3.02;;;;;;;4.79;74.48;100247.32;1780959;80;21192;-77
2022/05/12 01:21:41;;;;;;;10.53;3.12;;;;;;;4.73;73.45;100242.47;1781953;80;21776;-77
2022/05/12 01:24:49;;;;;;;11.65;3.08;;;;;;;4.70;72.20;100241.89;1782259;80;21153;-77
2022/05/12 01:27:55;;;;;;;5.10;3.10;;;;;;;4.66;70.87;100244.05;1745069;82;21212;-77
2022/05/12 01:31:01;;;;;;;6.33;2.83;;;;;;;4.64;69.81;100247.37;1782161;80;21148;-77
2022/05/12 01:34:09;;;;;;;6.78;2.95;;;;;;;4.65;69.20;100249.59;1782194;80;21718;-77
2022/05/12 01:37:14;;;;;;;8.05;3.08;;;;;;;4.66;68.77;100246.75;1782274;80;21223;-77
2022/05/12 01:40:22;;;;;;;8.10;2.50;;;;;;;4.69;68.58;100249.16;1744009;82;21176;-77
2022/05/12 01:43:27;;;;;;;6.30;3.10;;;;;;;4.72;68.39;100247.54;1782195;79;21227;-77
2022/05/12 01:46:26;;;;;;;12.98;2.90;;;;;;;4.77;68.20;100249.83;1782108;80;21160;-77
2022/05/12 01:49:32;;;;;;;5.00;2.98;;;;;;;4.80;68.19;100249.06;1744902;82;21228;-77
2022/05/12 01:52:39;;;;;;;5.37;2.92;;;;;;;4.83;68.12;100251.47;1782195;80;21231;-77
2022/05/12 01:55:48;;;;;;;5.90;3.10;;;;;;;4.87;68.22;100246.12;1782037;80;21160;-78
2022/05/12 01:58:52;;;;;;;12.68;2.83;;;;;;;4.91;68.22;100252.62;1780764;80;21203;-77
2022/05/12 02:01:57;;;;;;;7.92;3.25;;;;;;;4.93;68.33;100248.77;1744802;82;21706;-77
2022/05/12 02:05:04;;;;;;;4.95;2.90;;;;;;;4.92;68.33;100245.70;1781976;80;21996;-77
2022/05/12 02:08:09;;;;;;;6.37;3.27;;;;;;;4.93;67.76;100239.78;1781318;79;21192;-77
2022/05/12 02:11:14;;;;;;;7.42;3.10;;;;;;;4.97;67.70;100242.06;1780733;80;21184;-76
2022/05/12 02:14:21;;;;;;;5.90;3.12;;;;;;;5.02;68.35;100245.70;1744727;82;21165;-77
2022/05/12 02:17:26;;;;;;;4.75;2.70;;;;;;;5.02;69.59;100239.78;1776832;81;21747;-77
2022/05/12 02:20:31;;;;;;;7.60;3.25;;;;;;;5.03;70.90;100248.77;1775611;81;21220;-77
2022/05/12 02:23:38;;;;;;;21.35;9.65;;;;;;;5.04;71.98;100250.50;1775770;79;21204;-77
2022/05/12 02:26:44;;;;;;;43.08;17.85;;;;;;;5.14;73.32;100248.64;1775639;81;21737;-77
2022/05/12 02:29:38;;;;;;;46.35;19.12;;;;;;;5.29;73.61;100249.91;1775588;81;21840;-77
2022/05/12 02:32:38;;;;;;;36.10;14.18;;;;;;;5.52;73.37;100250.97;1776738;81;21192;-77
2022/05/12 02:35:44;;;;;;;52.73;17.65;;;;;;;5.78;73.08;100253.39;1777066;81;21196;-77
2022/05/12 02:38:50;;;;;;;57.35;21.75;;;;;;;6.06;72.01;100256.20;1775748;81;21195;-77
2022/05/12 02:41:57;;;;;;;47.75;16.87;;;;;;;6.39;70.53;100258.33;1777140;79;21199;-77
2022/05/12 02:45:04;;;;;;;72.60;26.68;;;;;;;6.79;69.83;100258.48;1777066;81;21181;-77
2022/05/12 02:48:10;;;;;;;72.47;24.10;;;;;;;7.16;68.28;100262.43;1775747;79;21347;-77
2022/05/12 02:51:16;;;;;;;64.55;21.97;;;;;;;7.49;66.07;100261.87;1775518;81;21189;-77
2022/05/12 02:54:25;;;;;;;68.62;23.05;;;;;;;7.77;64.43;100263.45;1777197;81;21184;-77
2022/05/12 02:57:30;;;;;;;40.05;13.28;;;;;;;8.01;63.14;100263.26;1776706;81;21188;-77
2022/05/12 03:00:35;;;;;;;40.40;10.85;;;;;;;8.18;62.14;100263.68;1776723;81;21686;-77
2022/05/12 03:03:41;;;;;;;23.27;9.25;;;;;;;8.34;61.25;100261.05;1775879;81;21243;-77
2022/05/12 03:06:47;;;;;;;27.93;8.00;;;;;;;8.50;60.59;100263.02;1776528;81;21192;-77
2022/05/12 03:09:54;;;;;;;23.35;6.97;;;;;;;8.71;60.33;100261.23;1775638;81;21200;-77
2022/05/12 03:13:01;;;;;;;18.70;5.60;;;;;;;8.96;60.00;100261.64;1775840;81;21195;-77
2022/05/12 03:16:06;;;;;;;8.83;3.80;;;;;;;9.26;59.57;100260.66;1777286;80;21243;-77
2022/05/12 03:19:12;;;;;;;6.05;3.00;;;;;;;9.57;58.89;100261.36;1780183;80;21219;-77
2022/05/12 03:22:18;;;;;;;14.10;3.25;;;;;;;9.83;57.39;100265.25;1741846;81;21984;-77
2022/05/12 03:25:25;;;;;;;7.85;3.70;;;;;;;10.08;55.51;100266.09;1743183;82;21217;-77
2022/05/12 03:28:31;;;;;;;7.97;3.05;;;;;;;10.36;53.87;100261.94;1742334;82;21200;-77
2022/05/12 03:31:37;;;;;;;10.55;3.02;;;;;;;10.65;52.50;100261.83;1742508;82;21203;-77
2022/05/12 03:34:44;;;;;;;10.50;2.80;;;;;;;10.89;51.35;100268.53;1743144;82;21161;-77
2022/05/12 03:37:50;;;;;;;8.50;2.85;;;;;;;11.05;51.10;100270.84;1742138;82;21715;-77
2022/05/12 03:40:57;;;;;;;6.35;2.62;;;;;;;11.22;51.09;100276.55;1741998;82;21149;-77
2022/05/12 03:47:29;;;;;;;9.10;2.47;;;;;;;11.52;50.57;100275.63;1742848;81;21627;-77
2022/05/12 03:50:35;;;;;;;10.30;2.75;;;;;;;11.58;50.25;100275.44;1743286;82;21145;-77
2022/05/12 03:53:35;;;;;;;6.08;3.17;;;;;;;11.58;50.60;100274.59;1743116;82;21762;-77
2022/05/12 03:56:42;;;;;;;14.25;3.10;;;;;;;11.57;51.24;100272.34;1743616;82;21208;-78
2022/05/12 03:59:41;;;;;;;4.65;2.52;;;;;;;11.56;51.84;100277.49;1743426;82;21750;-77
2022/05/12 04:02:33;;;;;;;14.85;3.02;;;;;;;11.57;52.80;100274.23;1742887;82;21213;-77
2022/05/12 04:05:39;;;;;;;5.70;3.10;;;;;;;11.62;53.47;100278.64;1715272;83;21180;-77
2022/05/12 04:08:45;;;;;;;5.92;2.75;;;;;;;11.71;53.44;100280.27;1743081;82;21196;-77
2022/05/12 04:11:51;;;;;;;7.45;3.35;;;;;;;11.80;53.57;100286.02;1742700;82;21189;-77
2022/05/12 04:14:57;;;;;;;7.00;3.33;;;;;;;12.02;53.18;100286.53;1742021;82;21172;-78
2022/05/12 04:18:12;;;;;;;9.93;3.37;;;;;;;12.30;53.12;100291.39;1737480;82;21204;-77
2022/05/12 04:21:18;;;;;;;22.27;3.37;;;;;;;12.53;53.24;100294.91;1771830;81;21153;-78
2022/05/12 04:24:23;;;;;;;19.12;4.25;;;;;;;12.74;51.33;100290.53;1734995;82;21247;-77
2022/05/12 04:27:30;;;;;;;12.40;4.45;;;;;;;12.97;51.12;100291.25;1771767;81;21173;-77
2022/05/12 04:30:36;;;;;;;13.60;3.87;;;;;;;13.22;50.87;100291.81;1735072;82;21205;-77
2022/05/12 04:37:05;;;;;;;13.62;4.22;;;;;;;13.72;50.03;100294.63;1735054;81;21190;-77
2022/05/12 04:40:25;;;;;;;8.43;3.67;;;;;;;13.94;49.81;100297.70;1771881;81;22064;-77
2022/05/12 04:43:30;;;;;;;12.73;4.05;;;;;;;14.12;49.50;100295.84;1734657;82;21161;-77
2022/05/12 04:46:36;;;;;;;9.83;3.87;;;;;;;14.30;49.36;100302.19;1771840;81;21143;-77
2022/05/12 04:49:41;;;;;;;12.58;3.95;;;;;;;14.47;48.74;100295.33;1734999;82;21162;-77
2022/05/12 04:52:47;;;;;;;10.18;3.87;;;;;;;14.62;48.77;100297.14;1771143;80;21208;-78
2022/05/12 04:55:47;;;;;;;10.23;4.17;;;;;;;14.75;49.10;100298.59;1734956;82;21182;-77
2022/05/12 04:58:40;;;;;;;12.15;3.40;;;;;;;14.93;48.86;100305.78;1771628;81;21188;-78
2022/05/12 05:01:45;;;;;;;12.53;3.87;;;;;;;15.10;48.61;100303.51;1734706;82;21201;-78
2022/05/12 05:04:50;;;;;;;13.62;4.25;;;;;;;15.25;47.92;100299.24;1771830;81;21766;-78
2022/05/12 05:07:57;;;;;;;6.58;3.42;;;;;;;15.46;48.06;100301.83;1735045;81;21204;-77
2022/05/12 05:11:06;;;;;;;11.20;4.42;;;;;;;15.67;47.48;100304.99;1771812;81;22107;-78
2022/05/12 05:14:11;;;;;;;11.08;4.15;;;;;;;15.91;47.34;100302.16;1734634;82;21767;-78
2022/05/12 05:17:17;;;;;;;12.25;4.40;;;;;;;16.14;46.75;100305.00;1771290;80;21806;-78
2022/05/12 05:20:26;;;;;;;11.25;4.75;;;;;;;16.29;46.84;100296.83;1733283;82;21193;-78
2022/05/12 05:23:31;;;;;;;8.60;4.12;;;;;;;16.49;47.03;100296.80;1771125;81;21232;-77
2022/05/12 05:26:37;;;;;;;8.48;3.47;;;;;;;16.67;47.22;100303.56;1734432;82;21212;-78
2022/05/12 05:29:41;;;;;;;17.98;4.42;;;;;;;16.81;47.33;100308.86;1771267;81;21197;-78
2022/05/12 05:32:46;;;;;;;24.90;5.33;;;;;;;17.01;46.80;100302.42;1771844;81;21212;-78
2022/05/12 05:35:51;;;;;;;17.35;4.58;;;;;;;17.24;46.49;100308.80;1734861;82;21204;-78
2022/05/12 05:38:56;;;;;;;7.60;3.67;;;;;;;17.46;45.04;100303.81;1771637;81;21754;-78
2022/05/12 05:42:06;;;;;;;15.58;3.72;;;;;;;17.66;44.82;100307.29;1771594;80;21204;-78
2022/05/12 05:45:16;;;;;;;8.90;3.98;;;;;;;17.87;43.66;100310.25;1771221;81;21177;-77
2022/05/12 05:48:23;;;;;;;6.40;3.20;;;;;;;18.09;43.96;100312.11;1734188;82;21208;-79
2022/05/12 05:54:52;;;;;;;14.43;3.15;;;;;;;18.46;42.62;100313.59;1734851;82;21245;-78
2022/05/12 05:57:57;;;;;;;8.48;3.12;;;;;;;18.68;42.34;100310.72;1770929;81;21216;-78
2022/05/12 06:01:04;;;;;;;10.40;3.17;;;;;;;18.85;41.42;100300.73;1734769;82;21169;-78
2022/05/12 06:04:10;;;;;;;10.72;3.40;;;;;;;19.01;40.87;100297.05;1770692;81;21208;-78
2022/05/12 06:07:17;;;;;;;12.65;3.27;;;;;;;19.18;40.59;100301.41;1734744;82;21201;-78
2022/05/12 06:10:22;;;;;;;10.38;3.37;;;;;;;19.30;40.26;100294.01;1771802;81;21201;-78
2022/05/12 06:13:22;;;;;;;8.13;3.77;;;;;;;19.41;40.68;100296.81;1770658;80;21165;-78
2022/05/12 06:16:28;;;;;;;7.05;3.17;;;;;;;19.56;39.85;100299.70;1734901;82;21224;-78
2022/05/12 06:19:33;;;;;;;10.03;3.40;;;;;;;19.70;39.66;100299.01;1771749;80;21279;-78
2022/05/12 06:22:39;;;;;;;11.35;3.83;;;;;;;19.82;39.22;100289.64;1771269;80;21801;-78
2022/05/12 06:25:44;;;;;;;13.32;4.10;;;;;;;19.93;38.24;100288.52;1734890;82;21209;-79
2022/05/12 06:28:50;;;;;;;9.25;4.00;;;;;;;20.04;38.16;100284.38;1770441;81;21200;-78
2022/05/12 06:31:57;;;;;;;15.28;4.50;;;;;;;20.13;37.59;100289.86;1733401;82;21232;-78
2022/05/12 06:35:02;;;;;;;6.62;3.87;;;;;;;20.23;37.41;100294.85;1770322;81;21197;-79
2022/05/12 06:38:07;;;;;;;12.25;4.28;;;;;;;20.33;36.99;100290.09;1734137;82;21228;-78
2022/05/12 06:41:12;;;;;;;11.93;3.85;;;;;;;20.43;35.99;100289.77;1771722;81;21153;-78
2022/05/12 06:44:18;;;;;;;8.65;3.72;;;;;;;20.51;35.30;100288.58;1767503;81;21165;-79
2022/05/12 06:47:23;;;;;;;13.15;3.42;;;;;;;20.62;37.14;100297.47;1781545;79;21687;-79
2022/05/12 06:50:31;;;;;;;6.72;3.60;;;;;;;20.75;37.12;100289.95;1793137;80;21684;-79
2022/05/12 06:53:37;;;;;;;8.00;3.67;;;;;;;20.86;36.07;100294.12;1792993;80;21158;-79
2022/05/12 06:56:38;;;;;;;15.40;3.62;;;;;;;20.95;35.91;100288.19;1793179;80;21154;-78
2022/05/12 06:59:45;;;;;;;13.22;3.92;;;;;;;21.03;36.23;100283.09;1776103;80;21157;-78
2022/05/12 07:02:53;;;;;;;11.38;3.55;;;;;;;21.15;36.24;100281.10;1764869;81;21793;-78
2022/05/12 07:06:01;;;;;;;8.28;3.60;;;;;;;21.26;36.53;100281.31;1699934;84;21223;-79
2022/05/12 07:09:07;;;;;;;9.03;3.00;;;;;;;21.37;36.62;100288.27;1771177;81;21184;-79
2022/05/12 07:12:13;;;;;;;7.42;3.08;;;;;;;21.50;34.79;100290.44;1771144;81;21188;-78
2022/05/12 07:15:20;;;;;;;11.60;3.20;;;;;;;21.49;31.94;100288.20;1765241;81;21245;-79
2022/05/12 07:18:25;;;;;;;12.07;3.33;;;;;;;21.48;34.74;100287.07;1764397;81;21252;-78
2022/05/12 07:28:13;;;;;;;5.35;2.45;;;;;;;21.61;32.36;100274.25;1698686;84;21219;-78
2022/05/12 07:31:20;;;;;;;7.33;3.00;;;;;;;21.65;34.17;100279.06;1764806;81;21216;-78
2022/05/12 07:34:26;;;;;;;5.97;3.08;;;;;;;21.75;34.16;100277.02;1765301;81;21193;-79
2022/05/12 07:37:31;;;;;;;9.28;2.80;;;;;;;21.85;33.33;100276.35;1765131;81;21189;-79
2022/05/12 07:40:37;;;;;;;9.08;3.15;;;;;;;21.91;34.06;100280.91;1765560;81;21213;-79
2022/05/12 07:43:42;;;;;;;5.95;2.98;;;;;;;21.96;34.46;100272.64;1769306;80;21279;-79
2022/05/12 07:46:47;;;;;;;12.23;3.00;;;;;;;22.05;33.42;100273.91;1722065;83;21209;-78
2022/05/12 07:49:53;;;;;;;7.08;2.75;;;;;;;22.10;32.75;100276.77;1792959;80;21758;-78
2022/05/12 07:52:59;;;;;;;4.92;2.15;;;;;;;22.14;32.40;100268.24;1721178;83;21864;-78
2022/05/12 07:56:05;;;;;;;9.35;2.87;;;;;;;22.19;32.12;100261.36;1791807;80;21229;-78
2022/05/12 07:59:11;;;;;;;5.87;2.62;;;;;;;22.20;29.44;100263.05;1729288;81;21207;-78
2022/05/12 08:02:18;;;;;;;8.95;2.50;;;;;;;22.21;28.81;100262.52;1739453;82;21152;-78
2022/05/12 08:05:24;;;;;;;6.35;2.62;;;;;;;22.24;30.76;100265.33;1726570;82;21214;-78
2022/05/12 08:08:29;;;;;;;5.97;3.00;;;;;;;22.29;29.79;100266.80;1782076;79;21137;-79
2022/05/12 08:11:34;;;;;;;8.70;2.47;;;;;;;22.21;28.03;100263.91;1782307;79;21671;-79
2022/05/12 08:14:40;;;;;;;4.87;2.55;;;;;;;22.14;28.42;100259.89;1782391;79;21189;-79
2022/05/12 08:17:46;;;;;;;10.13;2.30;;;;;;;22.07;27.34;100259.75;1778443;79;21118;-79
2022/05/12 08:20:52;;;;;;;10.32;2.70;;;;;;;21.96;28.94;100260.10;1730494;81;21154;-78
2022/05/12 08:23:59;;;;;;;7.08;2.65;;;;;;;22.02;30.63;100264.69;1782673;79;21141;-78
2022/05/12 08:27:03;;;;;;;6.15;2.65;;;;;;;22.16;30.29;100259.62;1771383;81;21217;-79
2022/05/12 08:30:09;;;;;;;10.03;2.67;;;;;;;22.30;31.89;100257.34;1774776;79;21157;-78
2022/05/12 08:33:14;;;;;;;8.43;2.30;;;;;;;22.46;32.25;100255.09;1786466;79;21765;-78
2022/05/12 08:36:19;;;;;;;13.13;3.22;;;;;;;22.61;32.98;100241.38;1791270;79;21200;-78
2022/05/12 08:39:24;;;;;;;4.10;2.35;;;;;;;22.71;31.78;100249.88;1791516;79;21137;-79
2022/05/12 08:42:37;;;;;;;8.18;2.45;;;;;;;22.79;30.73;100247.75;1792812;79;21182;-79
2022/05/12 08:45:42;;;;;;;8.35;2.00;;;;;;;22.85;30.71;100246.70;1808874;79;21157;-78
2022/05/12 08:48:50;;;;;;;5.85;2.27;;;;;;;22.89;29.02;100249.30;1784025;79;21153;-79
2022/05/12 08:52:01;;;;;;;4.00;2.40;;;;;;;22.85;30.59;100255.91;1809178;79;21145;-79
2022/05/12 08:55:43;;;;;;;2.98;1.50;;;;;;;22.84;29.46;100256.18;1809209;79;21674;-78
2022/05/12 08:58:49;;;;;;;16.20;2.85;;;;;;;22.84;30.32;100245.03;1775260;79;21197;-79
2022/05/12 09:02:05;;;;;;;5.53;1.85;;;;;;;22.84;30.36;100247.81;1768913;81;21165;-78
2022/05/12 09:05:14;;;;;;;7.12;2.05;;;;;;;22.87;28.83;100245.91;1769007;81;21186;-78
2022/05/12 09:08:48;;;;;;;3.60;2.35;;;;;;;22.89;31.05;100242.34;1768012;81;21205;-79
2022/05/12 09:12:07;;;;;;;9.70;2.20;;;;;;;22.89;29.45;100248.75;1768866;81;21153;-78
2022/05/12 09:15:21;;;;;;;;;;;;;;;22.91;31.05;100252.66;1771574;81;21162;-79
2022/05/12 09:18:36;;;;;;;8.13;2.17;;;;;;;22.92;28.63;100248.80;1768234;81;20191;-79
2022/05/12 09:21:44;;;;;;;4.45;2.33;;;;;;;22.87;27.82;100250.94;1745709;81;21786;-79
2022/05/12 09:24:50;;;;;;;20.08;2.50;;;;;;;22.84;29.63;100250.05;1762070;81;21193;-82
2022/05/12 09:27:58;;;;;;;3.50;1.80;;;;;;;22.80;29.77;100250.27;1697327;84;21217;-82
2022/05/12 09:31:11;;;;;;;5.37;2.22;;;;;;;22.81;29.98;100238.56;1763097;81;21190;-82
2022/05/12 09:34:36;;;;;;;9.33;2.12;;;;;;;22.79;28.18;100233.26;1697854;84;21222;-82
2022/05/12 09:37:42;;;;;;;7.95;2.27;;;;;;;22.71;29.13;100235.93;1761845;81;21778;-82
2022/05/12 09:40:47;;;;;;;3.58;2.22;;;;;;;22.71;29.50;100233.14;1698159;84;21221;-83
2022/05/12 09:43:52;;;;;;;7.95;1.90;;;;;;;22.76;28.58;100225.95;1763273;81;21173;-83
2022/05/12 09:47:18;;;;;;;5.33;1.60;;;;;;;22.81;30.21;100231.59;1761643;81;21165;-83
2022/05/12 09:50:32;;;;;;;4.97;2.02;;;;;;;22.88;30.31;100229.47;1697272;84;21170;-82
2022/05/12 09:53:38;;;;;;;5.12;2.15;;;;;;;22.94;30.91;100225.66;1762537;81;21321;-82
2022/05/12 09:56:47;;;;;;;7.25;1.57;;;;;;;23.01;31.58;100219.87;1762205;79;21602;-83
2022/05/12 10:00:04;;;;;;;8.05;2.17;;;;;;;23.07;31.40;100224.44;1758080;81;21189;-82
2022/05/12 10:10:02;;;;;;;3.62;1.57;;;;;;;22.94;27.17;100222.88;1758697;81;21166;-82
2022/05/12 10:13:31;;;;;;;6.22;2.12;;;;;;;22.97;29.47;100220.13;1769470;81;21193;-82
2022/05/12 10:16:37;;;;;;;4.35;1.85;;;;;;;23.04;30.23;100213.23;1760637;79;21239;-81
2022/05/12 10:19:43;;;;;;;7.53;2.37;;;;;;;23.11;29.63;100203.28;1758255;81;21244;-82
2022/05/12 10:23:01;;;;;;;9.03;2.65;;;;;;;23.17;30.08;100203.06;1761231;79;21213;-82
2022/05/12 10:26:20;;;;;;;10.32;2.25;;;;;;;23.23;28.09;100191.96;1713184;83;21298;-81
2022/05/12 10:29:53;;;;;;;8.20;2.05;;;;;;;23.29;29.81;100192.30;1708080;84;21205;-82
2022/05/12 10:33:31;;;;;;;4.67;2.12;;;;;;;23.38;29.30;100189.32;1677894;85;21264;-82
2022/05/12 10:36:54;;;;;;;8.28;3.12;;;;;;;23.42;29.40;100182.95;1701103;83;21754;-82
2022/05/12 10:40:25;;;;;;;7.55;2.62;;;;;;;23.46;28.50;100181.88;1666872;85;21522;-82
2022/05/12 10:43:45;;;;;;;4.45;2.58;;;;;;;23.44;27.19;100182.70;1658106;86;21257;-82
2022/05/12 10:47:06;;;;;;;7.33;1.92;;;;;;;23.41;28.22;100179.87;1680039;85;21790;-82
2022/05/12 10:50:33;;;;;;;17.00;2.47;;;;;;;23.45;29.18;100180.20;1658420;86;21217;-82
2022/05/12 10:53:53;;;;;;;3.77;2.08;;;;;;;23.50;28.47;100171.03;1688983;84;21766;-82
2022/05/12 10:57:32;;;;;;;2.60;1.63;;;;;;;23.49;29.11;100166.00;1681898;84;21194;-82
2022/05/12 11:00:55;;;;;;;13.40;2.27;;;;;;;23.52;28.93;100167.41;1709476;83;21875;-83
2022/05/12 11:04:21;;;;;;;4.42;2.08;;;;;;;23.54;28.64;100152.09;1677594;84;21301;-80
2022/05/12 11:07:32;;;;;;;5.83;1.52;;;;;;;23.56;28.53;100151.25;1687408;84;21217;-83
2022/05/12 11:10:41;;;;;;;5.00;1.55;;;;;;;23.59;28.97;100153.53;1686659;84;21154;-81
2022/05/12 11:14:08;;;;;;;6.47;1.60;;;;;;;23.59;29.56;100145.16;1680766;84;21234;-83
2022/05/12 11:17:30;;;;;;;3.30;1.55;;;;;;;23.62;29.80;100140.44;1692244;84;21528;-84
2022/05/12 11:20:40;;;;;;;7.28;1.70;;;;;;;23.66;29.14;100140.20;1715935;83;21213;-82
2022/05/12 11:24:18;;;;;;;7.78;2.25;;;;;;;23.66;29.03;100131.83;1718962;83;21197;-82
2022/05/12 11:27:48;;;;;;;4.83;1.80;;;;;;;23.68;29.46;100126.83;1743714;81;21240;-82
2022/05/12 11:30:56;;;;;;;9.03;1.92;;;;;;;23.65;28.85;100124.56;1743256;82;21597;-82
2022/05/12 11:34:04;;;;;;;3.70;1.72;;;;;;;23.66;30.15;100119.81;1745080;81;21212;-83
2022/05/12 11:37:30;;;;;;;5.65;1.75;;;;;;;23.70;29.31;100111.20;1713227;82;21209;-82
2022/05/12 11:40:51;;;;;;;;;;;;;;;23.70;28.42;100110.64;1731217;82;21556;-82
2022/05/12 11:47:43;;;;;;;7.00;2.27;;;;;;;23.71;29.64;100108.16;1726148;82;21273;-82
2022/05/12 11:51:06;;;;;;;7.37;1.77;;;;;;;23.75;29.10;100097.83;1723600;82;21715;-82
2022/05/12 11:54:44;;;;;;;5.75;2.00;;;;;;;23.77;29.21;100105.41;1717267;82;21800;-82
2022/05/12 11:57:51;;;;;;;4.28;1.50;;;;;;;23.76;27.28;100089.20;1714063;83;21216;-82
2022/05/12 12:01:01;;;;;;;2.15;1.32;;;;;;;23.74;28.26;100101.18;1713596;83;21244;-82
2022/05/12 12:04:09;;;;;;;7.17;1.27;;;;;;;23.73;27.37;100102.86;1743023;82;21838;-82
2022/05/12 12:07:30;;;;;;;3.47;1.35;;;;;;;23.70;28.36;100092.49;1737594;82;21217;-82
2022/05/12 12:10:47;;;;;;;2.72;1.47;;;;;;;23.70;28.13;100085.52;1734215;82;21202;-82
2022/05/12 12:13:46;;;;;;;5.58;1.30;;;;;;;23.69;28.90;100095.56;1732879;82;21209;-82
2022/05/12 12:17:19;;;;;;;6.40;1.90;;;;;;;23.71;27.94;100090.02;1734244;82;21154;-82
2022/05/12 12:20:40;;;;;;;5.97;1.62;;;;;;;23.73;28.14;100077.73;1715918;82;21205;-82
2022/05/12 12:23:46;;;;;;;6.97;1.92;;;;;;;23.78;27.93;100081.95;1713506;83;21853;-82
2022/05/12 12:26:54;;;;;;;4.65;1.45;;;;;;;23.74;26.53;100074.66;1710995;82;21233;-82
2022/05/12 12:29:58;;;;;;;6.37;1.70;;;;;;;23.68;28.06;100070.16;1678960;85;21174;-82
2022/05/12 12:33:35;;;;;;;9.58;1.92;;;;;;;23.68;28.33;100060.38;1660188;85;21287;-82
2022/05/12 12:36:51;;;;;;;7.42;1.70;;;;;;;23.69;28.91;100062.89;1701422;83;21741;-82
2022/05/12 12:39:57;;;;;;;8.38;1.65;;;;;;;23.76;28.42;100058.48;1708675;84;21218;-82
2022/05/12 12:43:04;;;;;;;4.58;1.40;;;;;;;23.78;27.87;100055.42;1709475;84;21197;-84
2022/05/12 12:46:25;;;;;;;6.58;1.32;;;;;;;23.77;28.53;100044.80;1710068;84;21166;-82
2022/05/12 12:49:38;;;;;;;;;;;;;;;23.80;28.53;100044.25;1712796;84;21744;-82
2022/05/12 12:52:56;;;;;;;5.10;1.57;;;;;;;23.82;29.31;100040.64;1708880;83;20190;-82
2022/05/12 12:59:27;;;;;;;10.05;1.50;;;;;;;23.82;28.79;100038.41;1709503;84;21537;-82
2022/05/12 13:02:46;;;;;;;7.60;1.45;;;;;;;23.83;29.13;100040.09;1710060;84;21201;-82
2022/05/12 13:05:52;;;;;;;10.18;1.67;;;;;;;23.83;29.27;100037.30;1710311;83;21146;-82
2022/05/12 13:09:07;;;;;;;5.70;1.55;;;;;;;23.82;29.32;100030.03;1709743;84;21261;-82
2022/05/12 13:12:28;;;;;;;5.05;1.50;;;;;;;23.79;28.80;100031.41;1709087;84;21846;-82
2022/05/12 13:15:33;;;;;;;3.60;1.55;;;;;;;23.76;28.90;100027.77;1709955;84;21347;-82
2022/05/12 13:18:42;;;;;;;8.40;1.62;;;;;;;23.73;29.13;100035.28;1708625;84;21374;-82
2022/05/12 13:21:53;;;;;;;9.80;1.45;;;;;;;23.74;29.37;100029.14;1710432;83;21178;-82
2022/05/12 13:24:59;;;;;;;5.83;2.02;;;;;;;23.72;29.09;100029.42;1710338;84;21205;-83
2022/05/12 13:28:04;;;;;;;6.05;1.47;;;;;;;23.68;28.56;100024.92;1710004;84;21240;-82
2022/05/12 13:31:35;;;;;;;6.58;1.72;;;;;;;23.62;27.84;100025.11;1722413;83;21221;-82
2022/05/12 13:34:42;;;;;;;4.80;1.42;;;;;;;23.58;27.94;100015.62;1772642;80;21144;-82
2022/05/12 13:37:55;;;;;;;13.32;1.80;;;;;;;23.53;28.67;100012.80;1798287;79;21228;-82
2022/05/12 13:41:05;;;;;;;2.55;1.20;;;;;;;23.50;28.00;100009.14;1730686;83;21169;-82
2022/05/12 13:44:26;;;;;;;6.42;1.35;;;;;;;23.47;28.83;100018.88;1801637;79;21762;-82
2022/05/12 13:47:52;;;;;;;4.97;1.45;;;;;;;23.43;29.01;100013.53;1780878;79;21153;-82
2022/05/12 13:51:01;;;;;;;7.37;1.40;;;;;;;23.42;29.21;100002.09;1799835;79;21243;-82
2022/05/12 13:54:11;;;;;;;6.75;1.60;;;;;;;23.41;29.16;100007.40;1730112;83;21153;-82
2022/05/12 13:57:32;;;;;;;8.58;1.70;;;;;;;23.40;29.74;100016.89;1801386;79;21247;-82
2022/05/12 14:00:56;;;;;;;9.50;1.80;;;;;;;23.37;29.00;100009.04;1731205;83;21249;-82
2022/05/12 14:04:29;;;;;;;9.95;1.50;;;;;;;23.32;28.97;100000.08;1801255;79;21200;-78
2022/05/12 14:07:35;;;;;;;5.30;1.50;;;;;;;23.26;28.89;99996.97;1805617;79;21200;-78
2022/05/12 14:10:56;;;;;;;11.95;1.80;;;;;;;23.23;28.96;100005.86;1734404;82;21727;-79
2022/05/12 14:20:55;;;;;;;7.60;1.37;;;;;;;23.17;29.34;99988.25;1804285;79;21208;-78
2022/05/12 14:24:00;;;;;;;4.12;1.47;;;;;;;23.13;28.91;99986.26;1707382;84;21246;-78
2022/05/12 14:27:05;;;;;;;4.42;1.17;;;;;;;23.10;29.53;99991.84;1773909;81;21184;-78
2022/05/12 14:30:10;;;;;;;7.33;1.85;;;;;;;23.07;29.18;99979.80;1772707;81;22233;-77
2022/05/12 14:33:18;;;;;;;6.78;1.50;;;;;;;23.09;29.15;99983.71;1695226;84;22076;-78
2022/05/12 14:36:25;;;;;;;14.03;1.60;;;;;;;23.05;29.09;99979.21;1707322;82;21794;-78
2022/05/12 14:39:23;;;;;;;4.28;1.30;;;;;;;23.02;29.38;99971.40;1742516;82;21229;-78
2022/05/12 14:42:16;;;;;;;3.80;1.40;;;;;;;23.00;29.17;99963.00;1738191;82;21288;-78
2022/05/12 14:45:02;;;;;;;6.00;1.50;;;;;;;22.97;29.55;99964.39;1742567;82;21233;-78
2022/05/12 14:48:12;;;;;;;8.75;1.90;;;;;;;22.96;29.53;99962.72;1739551;82;21189;-78
2022/05/12 14:51:17;;;;;;;9.08;1.77;;;;;;;22.93;29.45;99954.87;1738691;82;21222;-78
2022/05/12 14:54:23;;;;;;;10.18;1.65;;;;;;;22.91;29.48;99951.48;1716499;82;21738;-78
2022/05/12 14:57:25;;;;;;;5.75;2.02;;;;;;;22.86;29.15;99944.45;1722199;82;21646;-78
2022/05/12 15:00:25;;;;;;;9.53;1.65;;;;;;;22.79;29.43;99939.11;1696524;84;21216;-78
2022/05/12 15:03:32;;;;;;;8.68;1.65;;;;;;;22.75;29.39;99942.69;1730995;83;21185;-78
2022/05/12 15:06:40;;;;;;;4.62;1.80;;;;;;;22.74;28.98;99938.23;1727393;82;21225;-78
2022/05/12 15:09:49;;;;;;;9.50;1.80;;;;;;;22.73;29.17;99937.95;1725723;83;21314;-78
2022/05/12 15:12:55;;;;;;;6.10;2.22;;;;;;;22.70;29.49;99933.17;1724774;82;21263;-77
2022/05/12 15:16:01;;;;;;;15.95;1.98;;;;;;;22.66;29.63;99933.97;1747251;81;21164;-78
2022/05/12 15:19:07;;;;;;;15.40;1.45;;;;;;;22.61;30.11;99929.19;1736101;81;21750;-78